sensor_id;sensor_type;location;lat;lon;timestamp;pressure;altitude;pressure_sealevel;temperature;humidity
76998;BME280;65930;48.874;10.734;2024-02-26T00:00:13;94324.22;;;3.39;100.00
76998;BME280;65930;48.874;10.734;2024-02-26T00:02:42;94323.41;;;3.49;100.00
76998;BME280;65930;48.874;10.734;2024-02-26T00:05:10;94315.59;;;3.41;100.00
76998;BME280;65930;48.874;10.734;2024-02-26T00:07:40;94314.84;;;3.33;100.00
76998;BME280;65930;48.874;10.734;2024-02-26T00:10:09;94316.03;;;3.36;100.00
76998;BME280;65930;48.874;10.734;2024-02-26T00:12:37;94319.56;;;3.22;100.00
76998;BME280;65930;48.874;10.734;2024-02-26T00:15:06;94316.47;;;3.20;100.00
76998;BME280;65930;48.874;10.734;2024-02-26T00:17:34;94317.63;;;3.30;100.00
76998;BME280;65930;48.874;10.734;2024-02-26T00:20:03;94314.91;;;3.26;100.00
76998;BME280;65930;48.874;10.734;2024-02-26T00:22:35;94303.16;;;3.29;100.00
76998;BME280;65930;48.874;10.734;2024-02-26T00:25:05;94307.09;;;3.14;100.00
76998;BME280;65930;48.874;10.734;2024-02-26T00:27:33;94304.75;;;3.16;100.00
76998;BME280;65930;48.874;10.734;2024-02-26T00:30:01;94308.66;;;3.08;100.00
76998;BME280;65930;48.874;10.734;2024-02-26T00:32:30;94305.53;;;3.09;100.00
76998;BME280;65930;48.874;10.734;2024-02-26T00:34:57;94307.91;;;3.11;100.00
76998;BME280;65930;48.874;10.734;2024-02-26T00:37:25;94299.28;;;3.09;100.00
76998;BME280;65930;48.874;10.734;2024-02-26T00:39:53;94294.22;;;3.04;100.00
76998;BME280;65930;48.874;10.734;2024-02-26T00:42:23;94295.41;;;3.03;100.00
76998;BME280;65930;48.874;10.734;2024-02-26T00:44:51;94294.59;;;3.09;100.00
76998;BME280;65930;48.874;10.734;2024-02-26T00:47:19;94300.47;;;3.12;100.00
76998;BME280;65930;48.874;10.734;2024-02-26T00:49:47;94292.28;;;3.04;100.00
76998;BME280;65930;48.874;10.734;2024-02-26T00:52:15;94293.84;;;3.05;100.00
76998;BME280;65930;48.874;10.734;2024-02-26T00:54:43;94291.88;;;2.99;100.00
76998;BME280;65930;48.874;10.734;2024-02-26T00:57:11;94289.16;;;3.06;100.00
76998;BME280;65930;48.874;10.734;2024-02-26T00:59:40;94284.84;;;3.05;100.00
76998;BME280;65930;48.874;10.734;2024-02-26T01:02:08;94289.53;;;3.08;100.00
76998;BME280;65930;48.874;10.734;2024-02-26T01:04:36;94286.00;;;3.11;100.00
76998;BME280;65930;48.874;10.734;2024-02-26T01:07:04;94296.16;;;3.14;100.00
76998;BME280;65930;48.874;10.734;2024-02-26T01:09:32;94281.75;;;3.03;100.00
76998;BME280;65930;48.874;10.734;2024-02-26T01:12:00;94278.19;;;3.17;100.00
76998;BME280;65930;48.874;10.734;2024-02-26T01:14:29;94272.69;;;3.20;100.00
76998;BME280;65930;48.874;10.734;2024-02-26T01:16:59;94280.91;;;3.13;100.00
76998;BME280;65930;48.874;10.734;2024-02-26T01:19:27;94279.72;;;3.21;100.00
76998;BME280;65930;48.874;10.734;2024-02-26T01:21:55;94281.28;;;3.22;100.00
76998;BME280;65930;48.874;10.734;2024-02-26T01:24:23;94285.59;;;3.16;100.00
76998;BME280;65930;48.874;10.734;2024-02-26T01:26:51;94280.50;;;3.22;100.00
76998;BME280;65930;48.874;10.734;2024-02-26T01:29:19;94278.94;;;3.21;100.00
76998;BME280;65930;48.874;10.734;2024-02-26T01:31:46;94270.75;;;3.21;100.00
76998;BME280;65930;48.874;10.734;2024-02-26T01:34:16;94278.16;;;3.24;100.00
76998;BME280;65930;48.874;10.734;2024-02-26T01:36:45;94262.53;;;3.21;100.00
76998;BME280;65930;48.874;10.734;2024-02-26T01:39:13;94257.81;;;3.28;100.00
76998;BME280;65930;48.874;10.734;2024-02-26T01:41:41;94264.84;;;3.29;100.00
76998;BME280;65930;48.874;10.734;2024-02-26T01:44:12;94258.19;;;3.27;100.00
76998;BME280;65930;48.874;10.734;2024-02-26T01:46:40;94258.22;;;3.23;100.00
76998;BME280;65930;48.874;10.734;2024-02-26T01:49:11;94256.22;;;3.27;100.00
76998;BME280;65930;48.874;10.734;2024-02-26T01:51:43;94265.63;;;3.30;100.00
76998;BME280;65930;48.874;10.734;2024-02-26T01:54:12;94264.06;;;3.29;100.00
76998;BME280;65930;48.874;10.734;2024-02-26T01:56:41;94260.16;;;3.26;100.00
76998;BME280;65930;48.874;10.734;2024-02-26T01:59:10;94271.88;;;3.23;100.00
76998;BME280;65930;48.874;10.734;2024-02-26T02:01:44;94267.59;;;3.26;100.00
76998;BME280;65930;48.874;10.734;2024-02-26T02:04:14;94273.06;;;3.22;100.00
76998;BME280;65930;48.874;10.734;2024-02-26T02:06:45;94275.03;;;3.25;100.00
76998;BME280;65930;48.874;10.734;2024-02-26T02:09:14;94271.88;;;3.27;100.00
76998;BME280;65930;48.874;10.734;2024-02-26T02:11:42;94268.72;;;3.32;100.00
76998;BME280;65930;48.874;10.734;2024-02-26T02:14:10;94259.34;;;3.33;100.00
76998;BME280;65930;48.874;10.734;2024-02-26T02:16:38;94273.41;;;3.31;100.00
76998;BME280;65930;48.874;10.734;2024-02-26T02:19:06;94260.94;;;3.30;100.00
76998;BME280;65930;48.874;10.734;2024-02-26T02:21:36;94262.13;;;3.22;100.00
76998;BME280;65930;48.874;10.734;2024-02-26T02:24:04;94253.16;;;3.18;100.00
76998;BME280;65930;48.874;10.734;2024-02-26T02:26:33;94260.19;;;3.19;100.00
76998;BME280;65930;48.874;10.734;2024-02-26T02:29:02;94256.31;;;3.06;100.00
76998;BME280;65930;48.874;10.734;2024-02-26T02:31:30;94259.44;;;3.08;100.00
76998;BME280;65930;48.874;10.734;2024-02-26T02:33:58;94254.34;;;3.17;100.00
76998;BME280;65930;48.874;10.734;2024-02-26T02:36:27;94240.66;;;3.14;100.00
76998;BME280;65930;48.874;10.734;2024-02-26T02:38:56;94261.78;;;3.17;100.00
76998;BME280;65930;48.874;10.734;2024-02-26T02:41:25;94239.09;;;3.16;100.00
76998;BME280;65930;48.874;10.734;2024-02-26T02:43:54;94240.66;;;3.17;100.00
76998;BME280;65930;48.874;10.734;2024-02-26T02:46:22;94236.34;;;3.20;100.00
76998;BME280;65930;48.874;10.734;2024-02-26T02:48:49;94247.69;;;3.22;100.00
76998;BME280;65930;48.874;10.734;2024-02-26T02:51:18;94251.97;;;3.19;100.00
76998;BME280;65930;48.874;10.734;2024-02-26T02:53:46;94245.34;;;3.20;100.00
76998;BME280;65930;48.874;10.734;2024-02-26T02:56:15;94242.97;;;3.19;100.00
76998;BME280;65930;48.874;10.734;2024-02-26T02:58:43;94238.69;;;3.14;100.00
76998;BME280;65930;48.874;10.734;2024-02-26T03:01:12;94230.53;;;3.10;100.00
76998;BME280;65930;48.874;10.734;2024-02-26T03:03:40;94225.03;;;3.10;100.00
76998;BME280;65930;48.874;10.734;2024-02-26T03:06:09;94233.22;;;3.14;100.00
76998;BME280;65930;48.874;10.734;2024-02-26T03:08:37;94231.25;;;3.18;100.00
76998;BME280;65930;48.874;10.734;2024-02-26T03:11:06;94237.94;;;3.10;100.00
76998;BME280;65930;48.874;10.734;2024-02-26T03:13:35;94228.16;;;3.16;100.00
76998;BME280;65930;48.874;10.734;2024-02-26T03:16:04;94234.38;;;3.24;100.00
76998;BME280;65930;48.874;10.734;2024-02-26T03:18:33;94242.22;;;3.22;100.00
76998;BME280;65930;48.874;10.734;2024-02-26T03:21:01;94239.84;;;3.20;100.00
76998;BME280;65930;48.874;10.734;2024-02-26T03:23:29;94250.41;;;3.25;100.00
76998;BME280;65930;48.874;10.734;2024-02-26T03:25:58;94256.66;;;3.19;100.00
76998;BME280;65930;48.874;10.734;2024-02-26T03:28:26;94253.13;;;3.25;100.00
76998;BME280;65930;48.874;10.734;2024-02-26T03:30:55;94255.44;;;3.27;100.00
76998;BME280;65930;48.874;10.734;2024-02-26T03:33:23;94262.13;;;3.26;100.00
76998;BME280;65930;48.874;10.734;2024-02-26T03:35:52;94261.34;;;3.25;100.00
76998;BME280;65930;48.874;10.734;2024-02-26T03:38:20;94258.59;;;3.25;99.89
76998;BME280;65930;48.874;10.734;2024-02-26T03:40:47;94261.75;;;3.20;100.00
76998;BME280;65930;48.874;10.734;2024-02-26T03:43:16;94257.44;;;3.26;98.89
76998;BME280;65930;48.874;10.734;2024-02-26T03:45:44;94265.25;;;3.24;99.92
76998;BME280;65930;48.874;10.734;2024-02-26T03:48:14;94271.88;;;3.23;99.56
76998;BME280;65930;48.874;10.734;2024-02-26T03:50:42;94268.00;;;3.14;100.00
76998;BME280;65930;48.874;10.734;2024-02-26T03:53:10;94282.88;;;3.16;100.00
76998;BME280;65930;48.874;10.734;2024-02-26T03:55:40;94284.03;;;3.15;100.00
76998;BME280;65930;48.874;10.734;2024-02-26T03:58:09;94284.06;;;3.12;100.00
76998;BME280;65930;48.874;10.734;2024-02-26T04:00:37;94286.00;;;3.11;100.00
76998;BME280;65930;48.874;10.734;2024-02-26T04:03:05;94279.75;;;3.10;100.00
76998;BME280;65930;48.874;10.734;2024-02-26T04:05:34;94278.16;;;3.13;100.00
76998;BME280;65930;48.874;10.734;2024-02-26T04:08:03;94285.63;;;3.09;100.00
76998;BME280;65930;48.874;10.734;2024-02-26T04:10:36;94281.75;;;3.03;100.00
76998;BME280;65930;48.874;10.734;2024-02-26T04:13:07;94291.88;;;3.06;100.00
76998;BME280;65930;48.874;10.734;2024-02-26T04:15:35;94295.41;;;3.03;100.00
76998;BME280;65930;48.874;10.734;2024-02-26T04:18:03;94296.19;;;3.07;100.00
76998;BME280;65930;48.874;10.734;2024-02-26T04:20:33;94292.28;;;3.12;100.00
76998;BME280;65930;48.874;10.734;2024-02-26T04:23:02;94293.78;;;3.23;100.00
76998;BME280;65930;48.874;10.734;2024-02-26T04:25:30;94291.88;;;3.06;100.00
76998;BME280;65930;48.874;10.734;2024-02-26T04:27:58;94293.44;;;3.03;100.00
76998;BME280;65930;48.874;10.734;2024-02-26T04:30:26;94286.78;;;3.08;100.00
76998;BME280;65930;48.874;10.734;2024-02-26T04:32:54;94274.72;;;3.02;100.00
76998;BME280;65930;48.874;10.734;2024-02-26T04:35:22;94266.09;;;3.03;100.00
76998;BME280;65930;48.874;10.734;2024-02-26T04:37:51;94284.44;;;3.10;100.00
76998;BME280;65930;48.874;10.734;2024-02-26T04:40:19;94299.28;;;3.16;100.00
76998;BME280;65930;48.874;10.734;2024-02-26T04:42:47;94294.97;;;3.15;100.00
76998;BME280;65930;48.874;10.734;2024-02-26T04:45:15;94303.94;;;3.23;100.00
76998;BME280;65930;48.874;10.734;2024-02-26T04:47:43;94305.13;;;3.25;99.60
76998;BME280;65930;48.874;10.734;2024-02-26T04:50:11;94314.47;;;3.28;99.73
76998;BME280;65930;48.874;10.734;2024-02-26T04:52:39;94296.16;;;3.21;100.00
76998;BME280;65930;48.874;10.734;2024-02-26T04:55:08;94299.66;;;3.25;100.00
76998;BME280;65930;48.874;10.734;2024-02-26T04:57:36;94292.66;;;3.17;100.00
76998;BME280;65930;48.874;10.734;2024-02-26T05:00:05;94312.56;;;3.14;100.00
76998;BME280;65930;48.874;10.734;2024-02-26T05:02:34;94314.91;;;3.19;100.00
76998;BME280;65930;48.874;10.734;2024-02-26T05:05:05;94311.41;;;3.12;100.00
76998;BME280;65930;48.874;10.734;2024-02-26T05:07:33;94328.22;;;3.17;100.00
76998;BME280;65930;48.874;10.734;2024-02-26T05:10:01;94312.16;;;3.19;100.00
76998;BME280;65930;48.874;10.734;2024-02-26T05:12:31;94324.28;;;3.25;99.50
76998;BME280;65930;48.874;10.734;2024-02-26T05:15:01;94326.59;;;3.27;99.73
76998;BME280;65930;48.874;10.734;2024-02-26T05:17:30;94327.03;;;3.15;100.00
76998;BME280;65930;48.874;10.734;2024-02-26T05:19:58;94321.19;;;3.13;100.00
76998;BME280;65930;48.874;10.734;2024-02-26T05:22:26;94304.00;;;3.01;100.00
76998;BME280;65930;48.874;10.734;2024-02-26T05:24:54;94283.69;;;2.99;100.00
76998;BME280;65930;48.874;10.734;2024-02-26T05:27:22;94284.47;;;2.99;100.00
76998;BME280;65930;48.874;10.734;2024-02-26T05:29:51;94302.44;;;3.11;100.00
76998;BME280;65930;48.874;10.734;2024-02-26T05:32:21;94306.72;;;3.12;100.00
76998;BME280;65930;48.874;10.734;2024-02-26T05:34:49;94323.53;;;3.10;100.00
76998;BME280;65930;48.874;10.734;2024-02-26T05:37:17;94327.00;;;3.18;100.00
76998;BME280;65930;48.874;10.734;2024-02-26T05:39:45;94316.47;;;3.13;100.00
76998;BME280;65930;48.874;10.734;2024-02-26T05:42:13;94318.81;;;3.18;100.00
76998;BME280;65930;48.874;10.734;2024-02-26T05:44:41;94301.25;;;3.05;100.00
76998;BME280;65930;48.874;10.734;2024-02-26T05:47:10;94296.56;;;3.05;100.00
76998;BME280;65930;48.874;10.734;2024-02-26T05:49:38;94311.03;;;3.02;100.00
76998;BME280;65930;48.874;10.734;2024-02-26T05:52:06;94308.72;;;2.87;100.00
76998;BME280;65930;48.874;10.734;2024-02-26T05:54:34;94295.44;;;2.82;100.00
76998;BME280;65930;48.874;10.734;2024-02-26T05:57:02;94303.28;;;2.80;100.00
76998;BME280;65930;48.874;10.734;2024-02-26T05:59:31;94308.75;;;2.80;100.00
76998;BME280;65930;48.874;10.734;2024-02-26T06:01:59;94307.97;;;2.83;100.00
76998;BME280;65930;48.874;10.734;2024-02-26T06:04:28;94312.25;;;2.84;100.00
76998;BME280;65930;48.874;10.734;2024-02-26T06:06:56;94304.84;;;2.84;100.00
76998;BME280;65930;48.874;10.734;2024-02-26T06:09:24;94314.19;;;2.90;100.00
76998;BME280;65930;48.874;10.734;2024-02-26T06:11:52;94327.81;;;3.08;100.00
76998;BME280;65930;48.874;10.734;2024-02-26T06:14:20;94330.56;;;3.04;100.00
76998;BME280;65930;48.874;10.734;2024-02-26T06:16:48;94343.47;;;3.04;100.00
76998;BME280;65930;48.874;10.734;2024-02-26T06:19:16;94354.78;;;3.13;100.00
76998;BME280;65930;48.874;10.734;2024-02-26T06:21:46;94357.91;;;3.15;100.00
76998;BME280;65930;48.874;10.734;2024-02-26T06:24:14;94349.72;;;3.12;100.00
76998;BME280;65930;48.874;10.734;2024-02-26T06:26:42;94337.19;;;3.18;100.00
76998;BME280;65930;48.874;10.734;2024-02-26T06:29:10;94352.41;;;3.22;100.00
76998;BME280;65930;48.874;10.734;2024-02-26T06:31:38;94375.84;;;3.27;99.71
76998;BME280;65930;48.874;10.734;2024-02-26T06:34:06;94378.19;;;3.28;100.00
76998;BME280;65930;48.874;10.734;2024-02-26T06:36:34;94372.75;;;3.21;100.00
76998;BME280;65930;48.874;10.734;2024-02-26T06:39:04;94363.38;;;3.15;100.00
76998;BME280;65930;48.874;10.734;2024-02-26T06:41:32;94360.63;;;3.08;100.00
76998;BME280;65930;48.874;10.734;2024-02-26T06:44:00;94358.69;;;3.05;100.00
76998;BME280;65930;48.874;10.734;2024-02-26T06:46:28;94353.25;;;2.98;100.00
76998;BME280;65930;48.874;10.734;2024-02-26T06:48:57;94353.63;;;3.03;100.00
76998;BME280;65930;48.874;10.734;2024-02-26T06:51:28;94358.34;;;3.03;100.00
76998;BME280;65930;48.874;10.734;2024-02-26T06:53:56;94348.16;;;3.07;100.00
76998;BME280;65930;48.874;10.734;2024-02-26T06:56:26;94354.41;;;3.07;100.00
76998;BME280;65930;48.874;10.734;2024-02-26T06:58:55;94347.75;;;3.12;100.00
76998;BME280;65930;48.874;10.734;2024-02-26T07:01:23;94343.81;;;3.13;100.00
76998;BME280;65930;48.874;10.734;2024-02-26T07:03:51;94355.94;;;3.19;100.00
76998;BME280;65930;48.874;10.734;2024-02-26T07:06:19;94358.69;;;3.19;100.00
76998;BME280;65930;48.874;10.734;2024-02-26T07:08:47;94361.41;;;3.26;100.00
76998;BME280;65930;48.874;10.734;2024-02-26T07:11:22;94348.50;;;3.23;100.00
76998;BME280;65930;48.874;10.734;2024-02-26T07:13:52;94360.22;;;3.27;100.00
76998;BME280;65930;48.874;10.734;2024-02-26T07:16:20;94360.63;;;3.22;100.00
76998;BME280;65930;48.874;10.734;2024-02-26T07:18:48;94368.81;;;3.29;100.00
76998;BME280;65930;48.874;10.734;2024-02-26T07:21:16;94366.84;;;3.33;100.00
76998;BME280;65930;48.874;10.734;2024-02-26T07:23:44;94365.25;;;3.46;100.00
76998;BME280;65930;48.874;10.734;2024-02-26T07:26:12;94369.16;;;3.52;99.38
76998;BME280;65930;48.874;10.734;2024-02-26T07:28:41;94371.84;;;3.67;98.42
76998;BME280;65930;48.874;10.734;2024-02-26T07:31:10;94375.69;;;3.80;97.23
76998;BME280;65930;48.874;10.734;2024-02-26T07:33:38;94388.56;;;3.93;94.18
76998;BME280;65930;48.874;10.734;2024-02-26T07:36:06;94384.16;;;4.14;93.60
76998;BME280;65930;48.874;10.734;2024-02-26T07:38:34;94395.81;;;4.28;91.52
76998;BME280;65930;48.874;10.734;2024-02-26T07:41:09;94397.25;;;4.51;91.19
76998;BME280;65930;48.874;10.734;2024-02-26T07:43:37;94403.41;;;4.69;90.06
76998;BME280;65930;48.874;10.734;2024-02-26T07:46:05;94404.25;;;4.59;87.61
76998;BME280;65930;48.874;10.734;2024-02-26T07:48:35;94405.00;;;4.63;86.56
76998;BME280;65930;48.874;10.734;2024-02-26T07:51:03;94414.34;;;4.72;86.88
76998;BME280;65930;48.874;10.734;2024-02-26T07:53:31;94416.59;;;4.88;85.34
76998;BME280;65930;48.874;10.734;2024-02-26T07:55:59;94427.50;;;4.95;84.70
76998;BME280;65930;48.874;10.734;2024-02-26T07:58:27;94430.66;;;4.94;83.14
76998;BME280;65930;48.874;10.734;2024-02-26T08:00:55;94426.63;;;5.05;83.03
76998;BME280;65930;48.874;10.734;2024-02-26T08:03:23;94431.72;;;5.07;82.58
76998;BME280;65930;48.874;10.734;2024-02-26T08:05:56;94438.84;;;4.97;83.75
76998;BME280;65930;48.874;10.734;2024-02-26T08:08:24;94438.50;;;4.92;84.30
76998;BME280;65930;48.874;10.734;2024-02-26T08:10:52;94446.28;;;5.00;86.17
76998;BME280;65930;48.874;10.734;2024-02-26T08:13:20;94445.47;;;5.03;84.79
76998;BME280;65930;48.874;10.734;2024-02-26T08:15:47;94434.38;;;5.17;85.24
76998;BME280;65930;48.874;10.734;2024-02-26T08:18:15;94432.75;;;5.23;83.61
76998;BME280;65930;48.874;10.734;2024-02-26T08:20:44;94424.78;;;5.40;82.84
76998;BME280;65930;48.874;10.734;2024-02-26T08:23:13;94427.97;;;5.35;82.72
76998;BME280;65930;48.874;10.734;2024-02-26T08:25:41;94431.13;;;5.29;82.81
76998;BME280;65930;48.874;10.734;2024-02-26T08:28:09;94428.81;;;5.24;83.82
76998;BME280;65930;48.874;10.734;2024-02-26T08:30:39;94443.78;;;5.20;85.28
76998;BME280;65930;48.874;10.734;2024-02-26T08:33:07;94435.03;;;5.32;85.65
76998;BME280;65930;48.874;10.734;2024-02-26T08:35:36;94437.38;;;5.33;83.20
76998;BME280;65930;48.874;10.734;2024-02-26T08:38:06;94435.78;;;5.36;84.07
76998;BME280;65930;48.874;10.734;2024-02-26T08:40:35;94432.66;;;5.34;84.33
76998;BME280;65930;48.874;10.734;2024-02-26T08:43:05;94435.09;;;5.25;83.98
76998;BME280;65930;48.874;10.734;2024-02-26T08:45:35;94420.19;;;5.26;82.97
76998;BME280;65930;48.874;10.734;2024-02-26T08:48:10;94415.41;;;5.33;83.41
76998;BME280;65930;48.874;10.734;2024-02-26T08:50:38;94402.72;;;5.50;83.70
76998;BME280;65930;48.874;10.734;2024-02-26T08:53:06;94396.97;;;5.71;84.42
76998;BME280;65930;48.874;10.734;2024-02-26T08:55:35;94396.97;;;5.71;82.76
76998;BME280;65930;48.874;10.734;2024-02-26T08:58:04;94407.13;;;5.78;83.55
76998;BME280;65930;48.874;10.734;2024-02-26T09:00:32;94407.72;;;5.96;84.14
76998;BME280;65930;48.874;10.734;2024-02-26T09:03:03;94395.25;;;5.88;82.11
76998;BME280;65930;48.874;10.734;2024-02-26T09:05:31;94395.16;;;5.95;79.33
76998;BME280;65930;48.874;10.734;2024-02-26T09:08:06;94393.00;;;6.44;77.77
76998;BME280;65930;48.874;10.734;2024-02-26T09:10:38;94386.19;;;6.79;77.26
76998;BME280;65930;48.874;10.734;2024-02-26T09:13:07;94389.72;;;6.79;74.64
76998;BME280;65930;48.874;10.734;2024-02-26T09:15:43;94390.53;;;7.03;73.36
76998;BME280;65930;48.874;10.734;2024-02-26T09:18:11;94395.13;;;7.09;71.59
76998;BME280;65930;48.874;10.734;2024-02-26T09:20:39;94389.81;;;7.45;72.27
76998;BME280;65930;48.874;10.734;2024-02-26T09:23:09;94396.22;;;7.39;69.43
76998;BME280;65930;48.874;10.734;2024-02-26T09:25:38;94404.16;;;7.33;70.04
76998;BME280;65930;48.874;10.734;2024-02-26T09:28:08;94400.41;;;7.24;69.17
76998;BME280;65930;48.874;10.734;2024-02-26T09:30:36;94408.19;;;7.29;68.26
76998;BME280;65930;48.874;10.734;2024-02-26T09:33:05;94395.97;;;7.53;67.92
76998;BME280;65930;48.874;10.734;2024-02-26T09:35:33;94397.44;;;7.58;67.01
76998;BME280;65930;48.874;10.734;2024-02-26T09:38:01;94396.13;;;7.66;66.77
76998;BME280;65930;48.874;10.734;2024-02-26T09:40:35;94397.00;;;7.82;67.65
76998;BME280;65930;48.874;10.734;2024-02-26T09:43:10;94401.78;;;7.59;68.04
76998;BME280;65930;48.874;10.734;2024-02-26T09:45:42;94407.59;;;7.64;67.25
76998;BME280;65930;48.874;10.734;2024-02-26T09:48:12;94414.50;;;7.72;66.44
76998;BME280;65930;48.874;10.734;2024-02-26T09:50:41;94416.38;;;7.79;67.01
76998;BME280;65930;48.874;10.734;2024-02-26T09:53:11;94427.63;;;7.88;67.29
76998;BME280;65930;48.874;10.734;2024-02-26T09:55:41;94423.94;;;7.94;68.54
76998;BME280;65930;48.874;10.734;2024-02-26T09:58:10;94430.75;;;8.10;67.62
76998;BME280;65930;48.874;10.734;2024-02-26T10:00:51;94413.97;;;7.81;66.39
76998;BME280;65930;48.874;10.734;2024-02-26T10:03:21;94421.41;;;8.04;67.68
76998;BME280;65930;48.874;10.734;2024-02-26T10:05:50;94423.09;;;8.17;67.83
76998;BME280;65930;48.874;10.734;2024-02-26T10:08:22;94421.09;;;7.98;67.60
76998;BME280;65930;48.874;10.734;2024-02-26T10:10:51;94420.00;;;8.15;68.35
76998;BME280;65930;48.874;10.734;2024-02-26T10:13:21;94414.56;;;8.12;69.00
76998;BME280;65930;48.874;10.734;2024-02-26T10:15:49;94413.28;;;8.36;68.94
76998;BME280;65930;48.874;10.734;2024-02-26T10:18:17;94413.06;;;8.27;68.55
76998;BME280;65930;48.874;10.734;2024-02-26T10:20:59;94418.47;;;8.34;68.96
76998;BME280;65930;48.874;10.734;2024-02-26T10:23:27;94424.03;;;8.50;68.26
76998;BME280;65930;48.874;10.734;2024-02-26T10:25:56;94430.41;;;8.47;67.08
76998;BME280;65930;48.874;10.734;2024-02-26T10:28:25;94437.63;;;8.41;67.30
76998;BME280;65930;48.874;10.734;2024-02-26T10:30:53;94437.03;;;8.69;68.34
76998;BME280;65930;48.874;10.734;2024-02-26T10:33:22;94443.72;;;8.52;67.15
76998;BME280;65930;48.874;10.734;2024-02-26T10:35:50;94450.00;;;8.72;68.13
76998;BME280;65930;48.874;10.734;2024-02-26T10:38:18;94442.84;;;8.55;67.80
76998;BME280;65930;48.874;10.734;2024-02-26T10:40:49;94435.16;;;8.47;66.60
76998;BME280;65930;48.874;10.734;2024-02-26T10:43:17;94434.78;;;8.64;66.46
76998;BME280;65930;48.874;10.734;2024-02-26T10:45:46;94449.25;;;8.88;67.23
76998;BME280;65930;48.874;10.734;2024-02-26T10:48:14;94451.38;;;8.80;65.68
76998;BME280;65930;48.874;10.734;2024-02-26T10:50:44;94452.63;;;8.96;64.30
76998;BME280;65930;48.874;10.734;2024-02-26T10:53:19;94467.28;;;8.93;63.57
76998;BME280;65930;48.874;10.734;2024-02-26T10:55:52;94467.84;;;9.04;63.86
76998;BME280;65930;48.874;10.734;2024-02-26T10:58:21;94466.00;;;9.33;62.73
76998;BME280;65930;48.874;10.734;2024-02-26T11:00:53;94465.53;;;9.35;62.25
76998;BME280;65930;48.874;10.734;2024-02-26T11:03:24;94461.31;;;9.46;62.47
76998;BME280;65930;48.874;10.734;2024-02-26T11:05:53;94464.25;;;9.39;60.82
76998;BME280;65930;48.874;10.734;2024-02-26T11:08:22;94470.63;;;9.36;60.75
76998;BME280;65930;48.874;10.734;2024-02-26T11:10:53;94467.09;;;9.68;59.66
76998;BME280;65930;48.874;10.734;2024-02-26T11:13:21;94471.84;;;9.84;60.26
76998;BME280;65930;48.874;10.734;2024-02-26T11:15:55;94466.44;;;10.09;59.11
76998;BME280;65930;48.874;10.734;2024-02-26T11:18:27;94467.63;;;9.79;59.64
76998;BME280;65930;48.874;10.734;2024-02-26T11:20:55;94464.13;;;10.07;57.93
76998;BME280;65930;48.874;10.734;2024-02-26T11:23:24;94466.28;;;10.00;56.43
76998;BME280;65930;48.874;10.734;2024-02-26T11:25:56;94471.59;;;10.39;57.55
76998;BME280;65930;48.874;10.734;2024-02-26T11:28:29;94472.75;;;10.26;56.87
76998;BME280;65930;48.874;10.734;2024-02-26T11:31:00;94471.09;;;10.28;52.08
76998;BME280;65930;48.874;10.734;2024-02-26T11:33:31;94462.09;;;10.08;51.64
76998;BME280;65930;48.874;10.734;2024-02-26T11:36:00;94467.75;;;10.04;53.18
76998;BME280;65930;48.874;10.734;2024-02-26T11:38:29;94460.66;;;10.03;49.96
76998;BME280;65930;48.874;10.734;2024-02-26T11:40:58;94459.53;;;10.01;52.76
76998;BME280;65930;48.874;10.734;2024-02-26T11:43:50;94453.38;;;10.26;52.50
76998;BME280;65930;48.874;10.734;2024-02-26T11:46:27;94449.22;;;10.46;52.85
76998;BME280;65930;48.874;10.734;2024-02-26T11:48:58;94455.16;;;10.32;52.79
76998;BME280;65930;48.874;10.734;2024-02-26T11:51:27;94453.22;;;10.17;54.01
76998;BME280;65930;48.874;10.734;2024-02-26T11:53:55;94458.47;;;10.27;54.52
76998;BME280;65930;48.874;10.734;2024-02-26T11:56:26;94452.16;;;10.27;55.47
76998;BME280;65930;48.874;10.734;2024-02-26T11:59:03;94457.59;;;10.14;56.47
76998;BME280;65930;48.874;10.734;2024-02-26T12:01:43;94451.94;;;10.21;57.35
76998;BME280;65930;48.874;10.734;2024-02-26T12:04:14;94450.19;;;10.11;57.64
76998;BME280;65930;48.874;10.734;2024-02-26T12:06:46;94450.78;;;10.19;57.55
76998;BME280;65930;48.874;10.734;2024-02-26T12:09:36;94460.16;;;10.37;57.86
76998;BME280;65930;48.874;10.734;2024-02-26T12:12:06;94469.56;;;10.11;58.32
76998;BME280;65930;48.874;10.734;2024-02-26T12:14:38;94469.06;;;10.16;58.98
76998;BME280;65930;48.874;10.734;2024-02-26T12:17:20;94457.09;;;10.19;59.64
76998;BME280;65930;48.874;10.734;2024-02-26T12:19:48;94462.47;;;10.26;58.06
76998;BME280;65930;48.874;10.734;2024-02-26T12:22:18;94455.56;;;10.47;54.15
76998;BME280;65930;48.874;10.734;2024-02-26T12:24:46;94453.81;;;10.24;51.75
76998;BME280;65930;48.874;10.734;2024-02-26T12:27:14;94462.53;;;10.51;54.21
76998;BME280;65930;48.874;10.734;2024-02-26T12:29:42;94456.44;;;10.44;51.02
76998;BME280;65930;48.874;10.734;2024-02-26T12:32:12;94458.88;;;10.54;51.75
76998;BME280;65930;48.874;10.734;2024-02-26T12:34:41;94460.28;;;10.34;50.38
76998;BME280;65930;48.874;10.734;2024-02-26T12:37:10;94465.56;;;10.28;51.88
76998;BME280;65930;48.874;10.734;2024-02-26T12:39:44;94463.59;;;10.41;52.93
76998;BME280;65930;48.874;10.734;2024-02-26T12:42:12;94475.66;;;10.35;53.57
76998;BME280;65930;48.874;10.734;2024-02-26T12:44:41;94475.22;;;10.36;55.31
76998;BME280;65930;48.874;10.734;2024-02-26T12:47:09;94473.91;;;10.41;55.24
76998;BME280;65930;48.874;10.734;2024-02-26T12:49:46;94465.91;;;10.30;56.08
76998;BME280;65930;48.874;10.734;2024-02-26T12:52:16;94476.16;;;10.17;56.80
76998;BME280;65930;48.874;10.734;2024-02-26T12:54:44;94476.16;;;10.17;55.92
76998;BME280;65930;48.874;10.734;2024-02-26T12:57:13;94474.22;;;10.30;57.17
76998;BME280;65930;48.874;10.734;2024-02-26T12:59:42;94482.25;;;10.25;59.19
76998;BME280;65930;48.874;10.734;2024-02-26T13:02:10;94486.44;;;10.17;55.42